Time;durP1;ratioP1;P1;durP2;ratioP2;P2;SDS_P1;SDS_P2;PMS_P1;PMS_P2;Temp;Humidity;BMP_temperature;BMP_pressure;BME280_temperature;BME280_humidity;BME280_pressure;Samples;Min_cycle;Max_cycle;Signal;HPM_P1;HPM_P2
2022/10/04 00:04:56;;;;;;;3.45;2.05;;;;;;;;;;10391363;28;20041;-64
2022/10/04 00:10:17;;;;;;;3.80;2.13;;;;;;;;;;10409362;28;20028;-62
2022/10/04 00:15:19;;;;;;;4.53;2.15;;;;;;;;;;10408564;28;20069;-63
2022/10/04 00:20:38;;;;;;;4.22;1.95;;;;;;;;;;10408971;28;20034;-66
2022/10/04 00:25:38;;;;;;;2.85;1.98;;;;;;;;;;10407747;28;20029;-64
2022/10/04 00:30:39;;;;;;;6.07;1.77;;;;;;;;;;10408782;28;20022;-60
2022/10/04 00:35:39;;;;;;;6.57;1.83;;;;;;;;;;10408611;28;20033;-66
2022/10/04 00:40:45;;;;;;;4.68;1.92;;;;;;;;;;10408601;28;20477;-67
2022/10/04 00:45:47;;;;;;;3.42;1.70;;;;;;;;;;10408169;28;20105;-64
2022/10/04 00:50:52;;;;;;;3.95;2.15;;;;;;;;;;10408476;28;20025;-65
2022/10/04 00:55:54;;;;;;;2.90;2.03;;;;;;;;;;10408339;28;20485;-68
2022/10/04 01:00:56;;;;;;;2.67;1.92;;;;;;;;;;10407987;28;20527;-68
2022/10/04 01:05:58;;;;;;;2.70;1.70;;;;;;;;;;10408650;28;20086;-64
2022/10/04 01:11:18;;;;;;;3.53;1.75;;;;;;;;;;10408121;28;20362;-65
2022/10/04 01:16:24;;;;;;;2.67;1.63;;;;;;;;;;10407917;28;20068;-66
2022/10/04 01:21:26;;;;;;;3.20;2.13;;;;;;;;;;10407981;28;20408;-65
2022/10/04 01:26:30;;;;;;;2.70;1.63;;;;;;;;;;10407924;28;20037;-66
2022/10/04 01:31:32;;;;;;;4.43;1.90;;;;;;;;;;10407447;28;20018;-67
2022/10/04 01:36:33;;;;;;;4.10;1.70;;;;;;;;;;10408226;28;20034;-65
2022/10/04 01:41:55;;;;;;;3.67;1.85;;;;;;;;;;10414979;28;20073;-66
2022/10/04 01:46:58;;;;;;;7.03;1.80;;;;;;;;;;10415251;28;20029;-66
2022/10/04 01:52:03;;;;;;;8.55;1.90;;;;;;;;;;10414467;28;20384;-66
2022/10/04 01:57:11;;;;;;;2.40;1.83;;;;;;;;;;10414871;28;20040;-62
2022/10/04 02:02:25;;;;;;;3.60;1.80;;;;;;;;;;10414027;28;20108;-62
2022/10/04 02:07:28;;;;;;;5.90;1.98;;;;;;;;;;10414113;28;20040;-66
2022/10/04 02:12:33;;;;;;;5.10;2.30;;;;;;;;;;10413805;28;20049;-62
2022/10/04 02:17:37;;;;;;;4.43;1.65;;;;;;;;;;10413513;28;20493;-64
2022/10/04 02:22:38;;;;;;;4.93;2.08;;;;;;;;;;10413444;28;20034;-67
2022/10/04 02:27:38;;;;;;;3.20;1.67;;;;;;;;;;10413703;28;20519;-59
2022/10/04 02:32:59;;;;;;;3.53;1.50;;;;;;;;;;10412466;28;20281;-66
2022/10/04 02:38:08;;;;;;;4.22;1.77;;;;;;;;;;10413537;28;20557;-66
2022/10/04 02:43:16;;;;;;;7.20;2.10;;;;;;;;;;10413695;28;20112;-64
2022/10/04 02:48:16;;;;;;;5.35;1.92;;;;;;;;;;10412464;28;20671;-64
2022/10/04 02:53:36;;;;;;;6.43;1.90;;;;;;;;;;10412061;28;20126;-61
2022/10/04 02:58:37;;;;;;;5.40;2.00;;;;;;;;;;10412664;28;20022;-66
2022/10/04 03:03:38;;;;;;;5.30;1.65;;;;;;;;;;10411981;28;20026;-55
2022/10/04 03:08:50;;;;;;;3.65;1.48;;;;;;;;;;10411529;28;20477;-64
2022/10/04 03:13:53;;;;;;;1.52;1.42;;;;;;;;;;10410874;28;20045;-51
2022/10/04 03:18:55;;;;;;;5.40;1.48;;;;;;;;;;10411180;28;20104;-54
2022/10/04 03:23:56;;;;;;;1.55;1.40;;;;;;;;;;10411020;28;20410;-66
2022/10/04 03:28:57;;;;;;;2.10;1.60;;;;;;;;;;10411041;28;20034;-67
2022/10/04 03:33:57;;;;;;;3.60;1.65;;;;;;;;;;10410780;28;20033;-67
2022/10/04 03:38:58;;;;;;;4.68;1.55;;;;;;;;;;10410376;28;20178;-66
2022/10/04 03:43:59;;;;;;;3.45;1.63;;;;;;;;;;10409952;28;20025;-52
2022/10/04 03:49:00;;;;;;;3.08;1.50;;;;;;;;;;10409949;28;20461;-66
2022/10/04 03:54:01;;;;;;;2.63;1.42;;;;;;;;;;10409645;28;20021;-65
2022/10/04 03:59:03;;;;;;;4.97;1.58;;;;;;;;;;10409820;28;20026;-64
2022/10/04 04:04:22;;;;;;;2.28;1.58;;;;;;;;;;10409779;28;20037;-66
2022/10/04 04:09:25;;;;;;;5.15;1.85;;;;;;;;;;10409920;28;20056;-66
2022/10/04 04:14:26;;;;;;;1.50;1.40;;;;;;;;;;10409281;28;20129;-66
2022/10/04 04:19:27;;;;;;;1.73;1.55;;;;;;;;;;10408991;28;20560;-67
2022/10/04 04:24:30;;;;;;;2.40;1.45;;;;;;;;;;10409128;28;20117;-66
2022/10/04 04:29:32;;;;;;;1.55;1.45;;;;;;;;;;10408987;28;20033;-66
2022/10/04 04:34:34;;;;;;;2.72;1.58;;;;;;;;;;10409215;28;20416;-67
2022/10/04 04:39:37;;;;;;;6.70;1.70;;;;;;;;;;10408897;28;20133;-60
2022/10/04 04:44:46;;;;;;;3.28;1.80;;;;;;;;;;10408536;28;20033;-62
2022/10/04 04:49:46;;;;;;;1.70;1.60;;;;;;;;;;10409004;28;20033;-64
2022/10/04 04:54:47;;;;;;;5.77;2.00;;;;;;;;;;10408477;28;20029;-62
2022/10/04 04:59:49;;;;;;;2.85;1.50;;;;;;;;;;10408708;28;20538;-63
2022/10/04 05:05:08;;;;;;;1.55;1.45;;;;;;;;;;10407936;28;20029;-62
2022/10/04 05:10:28;;;;;;;1.63;1.35;;;;;;;;;;10408082;28;20091;-67
2022/10/04 05:15:33;;;;;;;6.80;1.80;;;;;;;;;;10415020;28;20050;-61
2022/10/04 05:20:33;;;;;;;2.40;1.30;;;;;;;;;;10415596;28;20408;-65
2022/10/04 05:25:34;;;;;;;27.92;2.50;;;;;;;;;;10415631;28;20060;-57
2022/10/04 05:30:41;;;;;;;13.57;1.95;;;;;;;;;;10414790;28;20036;-51
2022/10/04 05:35:44;;;;;;;13.00;2.17;;;;;;;;;;10414169;28;20496;-56
2022/10/04 05:40:44;;;;;;;7.97;2.35;;;;;;;;;;10415359;28;20109;-60
2022/10/04 05:45:45;;;;;;;7.10;2.08;;;;;;;;;;10414193;28;20033;-55
2022/10/04 05:50:47;;;;;;;6.35;2.53;;;;;;;;;;10414037;28;20036;-50
2022/10/04 05:55:53;;;;;;;8.30;2.30;;;;;;;;;;10413712;28;20041;-56
2022/10/04 06:01:11;;;;;;;3.47;2.20;;;;;;;;;;10412786;28;20149;-55
2022/10/04 06:06:12;;;;;;;12.02;2.30;;;;;;;;;;10411502;28;20037;-50
2022/10/04 06:11:12;;;;;;;12.27;2.30;;;;;;;;;;10412588;28;20029;-59
2022/10/04 06:16:15;;;;;;;2.83;2.05;;;;;;;;;;10413734;28;20286;-59
2022/10/04 06:21:18;;;;;;;5.15;1.90;;;;;;;;;;10412908;28;20037;-55
2022/10/04 06:26:24;;;;;;;8.65;2.30;;;;;;;;;;10412873;28;20177;-59
2022/10/04 06:31:43;;;;;;;8.35;2.35;;;;;;;;;;10412789;28;20029;-60
2022/10/04 06:36:43;;;;;;;5.20;2.30;;;;;;;;;;10413725;28;20083;-59
2022/10/04 06:42:07;;;;;;;4.28;2.30;;;;;;;;;;10412527;28;20112;-59
2022/10/04 06:47:10;;;;;;;6.28;2.20;;;;;;;;;;10412115;28;20042;-60
2022/10/04 06:52:10;;;;;;;4.15;2.00;;;;;;;;;;10412759;28;20056;-59
2022/10/04 06:57:13;;;;;;;2.90;2.10;;;;;;;;;;10411936;28;20057;-59
2022/10/04 07:02:18;;;;;;;8.75;2.00;;;;;;;;;;10411635;28;20037;-60
2022/10/04 07:07:34;;;;;;;9.77;2.33;;;;;;;;;;10411926;28;20116;-59
2022/10/04 07:12:37;;;;;;;4.55;1.77;;;;;;;;;;10411743;28;20084;-58
2022/10/04 07:17:41;;;;;;;3.50;1.90;;;;;;;;;;10411233;28;20061;-60
2022/10/04 07:22:43;;;;;;;5.90;2.13;;;;;;;;;;10411449;28;20078;-60
2022/10/04 07:33:23;;;;;;;3.90;1.92;;;;;;;;;;10411015;28;20069;-55
2022/10/04 07:38:28;;;;;;;2.67;1.67;;;;;;;;;;10410032;28;20469;-55
2022/10/04 07:43:31;;;;;;;3.38;1.80;;;;;;;;;;10409956;28;20025;-56
2022/10/04 07:48:31;;;;;;;3.25;1.50;;;;;;;;;;10409551;28;20029;-54
2022/10/04 07:53:37;;;;;;;8.10;2.40;;;;;;;;;;10409993;28;20029;-57
2022/10/04 07:58:46;;;;;;;2.80;1.65;;;;;;;;;;10409785;28;20033;-58
2022/10/04 08:04:04;;;;;;;4.53;1.90;;;;;;;;;;10409808;28;20060;-59
2022/10/04 08:09:10;;;;;;;3.95;1.80;;;;;;;;;;10409285;28;20493;-59
2022/10/04 08:14:29;;;;;;;6.85;1.80;;;;;;;;;;10408973;28;20037;-58
2022/10/04 08:19:32;;;;;;;4.22;2.08;;;;;;;;;;10409593;28;20030;-58
2022/10/04 08:24:40;;;;;;;3.60;2.05;;;;;;;;;;10409401;28;20071;-59
2022/10/04 08:30:07;;;;;;;1.50;1.40;;;;;;;;;;10408744;28;20049;-58
2022/10/04 08:35:26;;;;;;;1.85;1.60;;;;;;;;;;10404569;28;20041;-55
2022/10/04 08:40:33;;;;;;;3.08;1.90;;;;;;;;;;10408934;28;20120;-55
2022/10/04 08:45:37;;;;;;;3.05;1.50;;;;;;;;;;10409513;28;20030;-57
2022/10/04 08:50:56;;;;;;;2.15;1.73;;;;;;;;;;10417322;28;20044;-55
2022/10/04 08:55:57;;;;;;;2.13;1.70;;;;;;;;;;10417118;28;20021;-55
2022/10/04 09:01:03;;;;;;;3.13;1.92;;;;;;;;;;10416136;28;20533;-56
2022/10/04 09:06:09;;;;;;;2.97;1.50;;;;;;;;;;10416089;28;20021;-53
2022/10/04 09:11:25;;;;;;;2.28;1.70;;;;;;;;;;10416304;28;20030;-56
2022/10/04 09:16:25;;;;;;;2.97;1.85;;;;;;;;;;10415616;28;20400;-52
2022/10/04 09:21:25;;;;;;;3.37;1.70;;;;;;;;;;10415976;28;20056;-58
2022/10/04 09:26:37;;;;;;;3.30;1.70;;;;;;;;;;10415495;28;20037;-59
2022/10/04 09:31:40;;;;;;;2.53;1.73;;;;;;;;;;10415206;28;20351;-58
2022/10/04 09:36:41;;;;;;;7.60;1.60;;;;;;;;;;10414907;28;20026;-59
2022/10/04 09:42:04;;;;;;;3.03;1.87;;;;;;;;;;10415199;28;20037;-59
2022/10/04 09:47:11;;;;;;;3.67;1.98;;;;;;;;;;10414560;28;20477;-59
2022/10/04 09:52:26;;;;;;;6.60;1.73;;;;;;;;;;10414217;28;20366;-59
2022/10/04 09:57:30;;;;;;;5.18;1.55;;;;;;;;;;10413512;28;20428;-60
2022/10/04 10:02:42;;;;;;;3.90;1.92;;;;;;;;;;10414408;28;20049;-60
2022/10/04 10:08:01;;;;;;;3.53;2.03;;;;;;;;;;10413763;28;20472;-53
2022/10/04 10:13:38;;;;;;;7.93;1.67;;;;;;;;;;10413443;28;20049;-55
2022/10/04 10:18:59;;;;;;;3.03;1.92;;;;;;;;;;10413524;28;20512;-55
2022/10/04 10:24:08;;;;;;;5.60;1.77;;;;;;;;;;10413541;28;20060;-56
2022/10/04 10:29:23;;;;;;;1.60;1.45;;;;;;;;;;10413030;28;20087;-53
2022/10/04 10:34:41;;;;;;;1.70;1.60;;;;;;;;;;10412997;28;20030;-55
2022/10/04 10:39:48;;;;;;;2.87;1.50;;;;;;;;;;10413291;28;20029;-52
2022/10/04 10:45:08;;;;;;;2.95;1.70;;;;;;;;;;10413038;28;20031;-53
2022/10/04 10:50:27;;;;;;;3.90;1.92;;;;;;;;;;10412136;28;20506;-52
2022/10/04 10:55:47;;;;;;;2.70;1.60;;;;;;;;;;10411994;28;20485;-53
2022/10/04 11:01:07;;;;;;;1.95;1.52;;;;;;;;;;10411884;28;20373;-59
2022/10/04 11:06:20;;;;;;;4.30;1.80;;;;;;;;;;10411625;28;20404;-58
2022/10/04 11:11:40;;;;;;;4.50;1.60;;;;;;;;;;10411167;28;20508;-56
2022/10/04 11:16:56;;;;;;;1.92;1.70;;;;;;;;;;10411498;28;20049;-54
2022/10/04 11:22:06;;;;;;;2.72;1.70;;;;;;;;;;10411021;28;20366;-52
2022/10/04 11:27:06;;;;;;;4.72;1.90;;;;;;;;;;10411298;28;20041;-52
2022/10/04 11:32:18;;;;;;;3.13;1.52;;;;;;;;;;10410530;28;20393;-55
2022/10/04 11:37:37;;;;;;;2.63;1.40;;;;;;;;;;10410428;28;20033;-53
2022/10/04 11:42:37;;;;;;;3.22;1.20;;;;;;;;;;10410303;28;20029;-51
2022/10/04 11:47:52;;;;;;;1.35;1.25;;;;;;;;;;10410143;28;20041;-53
2022/10/04 11:53:02;;;;;;;3.08;1.30;;;;;;;;;;10409332;28;20064;-53
2022/10/04 11:58:06;;;;;;;2.42;1.40;;;;;;;;;;10409624;28;20053;-52
2022/10/04 12:03:26;;;;;;;3.10;1.63;;;;;;;;;;10409221;28;20484;-53
2022/10/04 12:08:47;;;;;;;2.95;1.60;;;;;;;;;;10409561;28;20281;-54
2022/10/04 12:14:12;;;;;;;4.07;1.90;;;;;;;;;;10408631;28;20487;-52
2022/10/04 12:19:14;;;;;;;3.28;1.33;;;;;;;;;;10409242;28;20051;-51
2022/10/04 12:24:14;;;;;;;1.95;1.58;;;;;;;;;;10408369;28;20116;-52
2022/10/04 12:29:24;;;;;;;4.17;1.10;;;;;;;;;;10409134;28;20045;-52
2022/10/04 12:34:35;;;;;;;2.58;1.75;;;;;;;;;;10409035;28;20542;-52
2022/10/04 12:39:38;;;;;;;2.03;1.80;;;;;;;;;;10408444;28;20122;-53
2022/10/04 12:45:04;;;;;;;2.08;1.50;;;;;;;;;;10408358;28;20032;-53
2022/10/04 12:50:21;;;;;;;3.05;1.80;;;;;;;;;;10403239;28;20041;-53
2022/10/04 12:55:39;;;;;;;3.00;1.30;;;;;;;;;;10407165;28;20489;-53
2022/10/04 13:00:42;;;;;;;3.20;1.40;;;;;;;;;;10407422;28;20052;-51
2022/10/04 13:05:51;;;;;;;4.65;1.80;;;;;;;;;;10407073;28;20102;-55
2022/10/04 13:11:10;;;;;;;2.92;1.42;;;;;;;;;;10407298;28;20018;-53
2022/10/04 13:16:22;;;;;;;2.13;1.40;;;;;;;;;;10407290;28;20120;-52
2022/10/04 13:21:35;;;;;;;1.63;1.52;;;;;;;;;;10407646;28;20396;-53
2022/10/04 13:26:55;;;;;;;4.93;1.50;;;;;;;;;;10408094;28;20083;-52
2022/10/04 13:32:02;;;;;;;3.45;1.50;;;;;;;;;;10407954;28;20076;-53
2022/10/04 13:37:05;;;;;;;2.28;1.50;;;;;;;;;;10415519;28;20033;-50
2022/10/04 13:42:05;;;;;;;2.70;1.83;;;;;;;;;;10414992;28;20029;-52
2022/10/04 13:47:18;;;;;;;4.13;1.90;;;;;;;;;;10414464;28;20473;-52
2022/10/04 13:58:06;;;;;;;6.68;1.42;;;;;;;;;;10414597;28;20037;-51
2022/10/04 14:03:12;;;;;;;3.85;1.30;;;;;;;;;;10413795;28;20034;-50
2022/10/04 14:08:28;;;;;;;2.88;1.45;;;;;;;;;;10413975;28;20034;-49
2022/10/04 14:13:37;;;;;;;2.70;1.50;;;;;;;;;;10413495;28;20051;-49
2022/10/04 14:18:40;;;;;;;2.47;1.67;;;;;;;;;;10412326;28;20052;-53
2022/10/04 14:23:43;;;;;;;3.50;1.60;;;;;;;;;;10413239;28;20036;-51
2022/10/04 14:28:46;;;;;;;3.35;1.50;;;;;;;;;;10412873;28;20057;-52
2022/10/04 14:33:56;;;;;;;4.35;1.52;;;;;;;;;;10412783;28;20061;-55
2022/10/04 14:39:14;;;;;;;3.92;1.85;;;;;;;;;;10412311;28;20499;-52
2022/10/04 14:44:30;;;;;;;7.53;1.60;;;;;;;;;;10411850;28;20385;-52
2022/10/04 14:49:49;;;;;;;3.22;1.55;;;;;;;;;;10412178;28;20029;-53
2022/10/04 14:54:52;;;;;;;2.40;1.67;;;;;;;;;;10412435;28;20040;-53
2022/10/04 14:59:52;;;;;;;4.55;1.85;;;;;;;;;;10412111;28;20033;-52
2022/10/04 15:05:07;;;;;;;2.40;1.70;;;;;;;;;;10411437;28;20500;-54
2022/10/04 15:10:18;;;;;;;2.78;1.65;;;;;;;;;;10411936;28;20043;-53
2022/10/04 15:15:28;;;;;;;2.13;1.58;;;;;;;;;;10411097;28;20042;-52
2022/10/04 15:20:34;;;;;;;2.58;1.70;;;;;;;;;;10411150;28;20185;-52
2022/10/04 15:25:40;;;;;;;1.70;1.50;;;;;;;;;;10411083;28;20112;-53
2022/10/04 15:30:59;;;;;;;2.33;1.42;;;;;;;;;;10410893;28;20032;-53
2022/10/04 15:36:00;;;;;;;3.30;1.75;;;;;;;;;;10410627;28;20033;-53
2022/10/04 15:41:18;;;;;;;4.53;1.90;;;;;;;;;;10410530;28;20373;-52
2022/10/04 15:46:25;;;;;;;4.33;1.90;;;;;;;;;;10409533;28;20041;-50
2022/10/04 15:51:46;;;;;;;2.22;1.33;;;;;;;;;;10409949;28;20034;-52
2022/10/04 15:56:48;;;;;;;2.38;1.60;;;;;;;;;;10409515;28;20029;-52
2022/10/04 16:01:57;;;;;;;6.47;1.55;;;;;;;;;;10409090;28;20025;-52
2022/10/04 16:07:12;;;;;;;3.10;1.50;;;;;;;;;;10409011;28;20033;-54
2022/10/04 16:12:26;;;;;;;2.67;1.52;;;;;;;;;;10408392;28;20053;-51
2022/10/04 16:17:36;;;;;;;5.05;1.70;;;;;;;;;;10408823;28;20061;-53
2022/10/04 16:22:37;;;;;;;2.67;1.80;;;;;;;;;;10408659;28;20035;-53
2022/10/04 16:28:03;;;;;;;5.10;1.40;;;;;;;;;;10408061;28;20030;-54
2022/10/04 16:33:19;;;;;;;3.92;1.52;;;;;;;;;;10407140;28;20045;-53
2022/10/04 16:38:23;;;;;;;3.58;1.30;;;;;;;;;;10408339;28;20523;-53
2022/10/04 16:43:28;;;;;;;2.03;1.40;;;;;;;;;;10408522;28;20040;-52
2022/10/04 16:48:36;;;;;;;1.67;1.30;;;;;;;;;;10407724;28;20037;-53
2022/10/04 16:53:58;;;;;;;2.42;1.42;;;;;;;;;;10406770;28;20021;-49
2022/10/04 16:59:08;;;;;;;1.98;1.35;;;;;;;;;;10406899;28;20060;-55
2022/10/04 17:04:39;;;;;;;4.45;1.40;;;;;;;;;;10405519;28;20049;-51
2022/10/04 17:09:46;;;;;;;3.92;1.52;;;;;;;;;;10412473;28;20038;-53
2022/10/04 17:15:06;;;;;;;3.38;1.60;;;;;;;;;;10436769;23;20119;-65
2022/10/04 17:20:24;;;;;;;3.55;1.30;;;;;;;;;;10455387;28;20056;-68
2022/10/04 17:26:03;;;;;;;3.65;1.40;;;;;;;;;;10454982;28;20021;-65
2022/10/04 17:31:24;;;;;;;3.63;1.60;;;;;;;;;;10285606;28;20507;-65
2022/10/04 17:36:32;;;;;;;2.30;1.85;;;;;;;;;;10284856;28;20134;-66
2022/10/04 17:41:50;;;;;;;3.63;1.50;;;;;;;;;;10285821;28;20038;-66
2022/10/04 17:46:58;;;;;;;3.83;1.60;;;;;;;;;;10285833;28;20458;-67
2022/10/04 17:57:29;;;;;;;6.88;2.22;;;;;;;;;;10286330;28;20042;-66
2022/10/04 18:02:29;;;;;;;7.10;2.65;;;;;;;;;;10435812;28;20076;-66
2022/10/04 18:07:33;;;;;;;10.30;2.40;;;;;;;;;;10455248;28;20056;-66
2022/10/04 18:12:37;;;;;;;6.80;2.38;;;;;;;;;;10453303;28;20040;-66
2022/10/04 18:17:40;;;;;;;6.68;2.53;;;;;;;;;;10454009;28;20065;-61
2022/10/04 18:22:45;;;;;;;9.25;2.75;;;;;;;;;;10453711;28;20025;-65
2022/10/04 18:28:01;;;;;;;7.90;2.55;;;;;;;;;;10454331;28;20044;-64
2022/10/04 18:33:04;;;;;;;6.85;2.78;;;;;;;;;;10454210;28;20064;-66
2022/10/04 18:38:04;;;;;;;6.38;2.40;;;;;;;;;;10454236;28;20021;-62
2022/10/04 18:43:14;;;;;;;8.48;2.50;;;;;;;;;;10454139;28;20387;-66
2022/10/04 18:48:17;;;;;;;6.00;2.42;;;;;;;;;;10452398;28;20021;-65
2022/10/04 18:53:20;;;;;;;5.07;2.50;;;;;;;;;;10453027;28;20385;-64
2022/10/04 19:04:01;;;;;;;6.75;2.65;;;;;;;;;;10452279;28;20071;-66
2022/10/04 19:09:03;;;;;;;6.82;2.60;;;;;;;;;;10452781;28;20033;-66
2022/10/04 19:14:03;;;;;;;7.05;2.28;;;;;;;;;;10451633;28;20095;-65
2022/10/04 19:19:22;;;;;;;6.80;2.60;;;;;;;;;;10451178;28;20021;-64
2022/10/04 19:24:22;;;;;;;8.48;2.33;;;;;;;;;;10451718;28;20028;-65
2022/10/04 19:29:35;;;;;;;4.88;2.45;;;;;;;;;;10451986;28;20387;-66
2022/10/04 19:34:45;;;;;;;9.65;2.60;;;;;;;;;;10451539;28;20029;-59
2022/10/04 19:39:46;;;;;;;7.93;1.90;;;;;;;;;;10451969;28;20057;-65
2022/10/04 19:45:14;;;;;;;6.63;2.80;;;;;;;;;;10451735;28;20036;-67
2022/10/04 19:50:16;;;;;;;5.38;2.03;;;;;;;;;;10451621;28;20036;-66
2022/10/04 19:55:22;;;;;;;5.45;1.98;;;;;;;;;;10451982;28;20499;-66
2022/10/04 20:00:22;;;;;;;4.97;2.15;;;;;;;;;;10451654;28;20035;-66
2022/10/04 20:05:26;;;;;;;3.20;2.10;;;;;;;;;;10450297;28;20103;-67
2022/10/04 20:10:27;;;;;;;4.43;2.28;;;;;;;;;;10450291;28;20103;-66
2022/10/04 20:15:27;;;;;;;3.40;1.90;;;;;;;;;;10450609;28;20109;-66
2022/10/04 20:20:37;;;;;;;3.35;1.95;;;;;;;;;;10450775;28;20436;-67
2022/10/04 20:25:48;;;;;;;4.45;1.77;;;;;;;;;;10450370;28;20025;-65
2022/10/04 20:30:52;;;;;;;4.57;2.33;;;;;;;;;;10450404;28;20033;-63
2022/10/04 20:36:05;;;;;;;5.18;2.40;;;;;;;;;;10450186;28;20158;-63
2022/10/04 20:41:25;;;;;;;9.98;2.50;;;;;;;;;;10450002;28;20029;-65
2022/10/04 20:46:26;;;;;;;7.53;2.28;;;;;;;;;;10457933;28;20020;-66
2022/10/04 20:51:29;;;;;;;5.20;2.40;;;;;;;;;;10457934;28;20128;-66
2022/10/04 20:56:30;;;;;;;4.65;2.25;;;;;;;;;;10458481;28;20427;-65
2022/10/04 21:06:49;;;;;;;6.47;1.98;;;;;;;;;;10457569;28;20040;-64
2022/10/04 21:11:50;;;;;;;5.05;1.77;;;;;;;;;;10457038;28;20023;-63
2022/10/04 21:16:52;;;;;;;4.25;1.85;;;;;;;;;;10457208;28;20032;-63
2022/10/04 21:21:52;;;;;;;10.32;3.22;;;;;;;;;;10457071;28;20021;-64
2022/10/04 21:26:55;;;;;;;11.10;3.45;;;;;;;;;;10457139;28;20036;-66
2022/10/04 21:31:56;;;;;;;17.20;3.72;;;;;;;;;;10456266;28;20029;-70
2022/10/04 21:36:57;;;;;;;19.85;2.95;;;;;;;;;;10456810;28;20194;-70
2022/10/04 21:41:58;;;;;;;22.80;3.42;;;;;;;;;;10455836;28;20035;-61
2022/10/04 21:46:58;;;;;;;17.48;2.95;;;;;;;;;;10455060;28;20033;-66
2022/10/04 21:51:58;;;;;;;13.23;2.87;;;;;;;;;;10454070;28;20047;-67
2022/10/04 21:56:59;;;;;;;12.73;3.30;;;;;;;;;;10453338;28;20040;-67
2022/10/04 22:01:59;;;;;;;15.25;3.13;;;;;;;;;;10455806;28;20025;-66
2022/10/04 22:06:59;;;;;;;9.18;2.97;;;;;;;;;;10436927;28;20544;-69
2022/10/04 22:11:59;;;;;;;10.43;3.10;;;;;;;;;;10454595;28;20577;-65
2022/10/04 22:17:01;;;;;;;10.00;2.67;;;;;;;;;;10455318;28;20037;-69
2022/10/04 22:22:01;;;;;;;14.15;2.97;;;;;;;;;;10454513;28;20029;-67
2022/10/04 22:27:01;;;;;;;10.83;3.23;;;;;;;;;;10454676;28;20468;-72
2022/10/04 22:32:09;;;;;;;8.68;2.65;;;;;;;;;;10453782;28;20423;-72
2022/10/04 22:37:10;;;;;;;12.03;3.13;;;;;;;;;;10454441;28;20029;-73
2022/10/04 22:42:12;;;;;;;8.13;2.70;;;;;;;;;;10454326;28;20071;-73
2022/10/04 22:47:14;;;;;;;7.90;2.97;;;;;;;;;;10453443;28;20128;-72
2022/10/04 22:52:18;;;;;;;9.00;2.70;;;;;;;;;;10453034;28;20028;-74
2022/10/04 22:57:19;;;;;;;10.27;2.88;;;;;;;;;;10452288;28;20087;-70
2022/10/04 23:02:22;;;;;;;7.03;2.63;;;;;;;;;;10451745;28;20036;-74
2022/10/04 23:07:23;;;;;;;6.88;2.38;;;;;;;;;;10452055;28;20036;-73
2022/10/04 23:12:23;;;;;;;7.65;2.80;;;;;;;;;;10451678;28;20380;-55
2022/10/04 23:17:24;;;;;;;7.22;2.30;;;;;;;;;;10451859;28;20112;-48
2022/10/04 23:22:26;;;;;;;3.05;2.10;;;;;;;;;;10452172;28;20380;-52
2022/10/04 23:27:27;;;;;;;5.20;2.58;;;;;;;;;;10452010;28;20041;-61
2022/10/04 23:32:27;;;;;;;6.00;2.40;;;;;;;;;;10451274;28;20033;-50
2022/10/04 23:37:29;;;;;;;11.05;2.75;;;;;;;;;;10451808;28;20043;-56
2022/10/04 23:42:32;;;;;;;10.27;2.30;;;;;;;;;;10451818;28;20021;-50
2022/10/04 23:47:33;;;;;;;4.95;2.33;;;;;;;;;;10450679;28;20061;-51
2022/10/04 23:52:34;;;;;;;7.57;2.58;;;;;;;;;;10450212;28;20017;-49
2022/10/04 23:57:35;;;;;;;8.20;2.45;;;;;;;;;;10450357;28;20036;-52
